sensor_id;sensor_type;location;lat;lon;timestamp;P1;durP1;ratioP1;P2;durP2;ratioP2
8952;SDS011;4511;50.890;8.054;2023-02-28T00:01:27;4.90;;;4.50;;
8952;SDS011;4511;50.890;8.054;2023-02-28T00:03:54;7.07;;;4.90;;
8952;SDS011;4511;50.890;8.054;2023-02-28T00:06:21;5.17;;;4.73;;
8952;SDS011;4511;50.890;8.054;2023-02-28T00:08:49;4.83;;;4.47;;
8952;SDS011;4511;50.890;8.054;2023-02-28T00:11:16;5.23;;;4.53;;
8952;SDS011;4511;50.890;8.054;2023-02-28T00:13:45;5.13;;;4.63;;
8952;SDS011;4511;50.890;8.054;2023-02-28T00:16:13;5.17;;;4.77;;
8952;SDS011;4511;50.890;8.054;2023-02-28T00:18:43;5.83;;;4.73;;
8952;SDS011;4511;50.890;8.054;2023-02-28T00:21:10;5.33;;;4.93;;
8952;SDS011;4511;50.890;8.054;2023-02-28T00:23:36;4.70;;;4.40;;
8952;SDS011;4511;50.890;8.054;2023-02-28T00:26:03;4.53;;;4.23;;
8952;SDS011;4511;50.890;8.054;2023-02-28T00:28:30;5.30;;;4.63;;
8952;SDS011;4511;50.890;8.054;2023-02-28T00:30:59;4.90;;;4.50;;
8952;SDS011;4511;50.890;8.054;2023-02-28T00:33:26;5.10;;;4.60;;
8952;SDS011;4511;50.890;8.054;2023-02-28T00:36:00;5.10;;;4.60;;
8952;SDS011;4511;50.890;8.054;2023-02-28T00:38:29;4.93;;;4.53;;
8952;SDS011;4511;50.890;8.054;2023-02-28T00:40:56;5.70;;;5.20;;
8952;SDS011;4511;50.890;8.054;2023-02-28T00:43:23;5.30;;;4.80;;
8952;SDS011;4511;50.890;8.054;2023-02-28T00:45:50;6.67;;;4.90;;
8952;SDS011;4511;50.890;8.054;2023-02-28T00:48:18;4.87;;;4.47;;
8952;SDS011;4511;50.890;8.054;2023-02-28T00:50:47;5.53;;;5.03;;
8952;SDS011;4511;50.890;8.054;2023-02-28T00:53:14;4.97;;;4.67;;
8952;SDS011;4511;50.890;8.054;2023-02-28T00:55:41;4.93;;;4.53;;
8952;SDS011;4511;50.890;8.054;2023-02-28T00:58:08;5.40;;;5.00;;
8952;SDS011;4511;50.890;8.054;2023-02-28T01:00:35;5.40;;;4.90;;
8952;SDS011;4511;50.890;8.054;2023-02-28T01:03:01;5.10;;;4.70;;
8952;SDS011;4511;50.890;8.054;2023-02-28T01:05:29;5.53;;;4.70;;
8952;SDS011;4511;50.890;8.054;2023-02-28T01:07:56;5.07;;;4.53;;
8952;SDS011;4511;50.890;8.054;2023-02-28T01:10:23;5.10;;;4.70;;
8952;SDS011;4511;50.890;8.054;2023-02-28T01:12:51;5.50;;;4.90;;
8952;SDS011;4511;50.890;8.054;2023-02-28T01:15:17;4.70;;;4.30;;
8952;SDS011;4511;50.890;8.054;2023-02-28T01:17:44;5.20;;;4.67;;
8952;SDS011;4511;50.890;8.054;2023-02-28T01:20:11;5.60;;;5.10;;
8952;SDS011;4511;50.890;8.054;2023-02-28T01:22:40;5.60;;;5.10;;
8952;SDS011;4511;50.890;8.054;2023-02-28T01:25:07;5.70;;;5.20;;
8952;SDS011;4511;50.890;8.054;2023-02-28T01:27:34;5.27;;;4.90;;
8952;SDS011;4511;50.890;8.054;2023-02-28T01:30:01;5.23;;;4.83;;
8952;SDS011;4511;50.890;8.054;2023-02-28T01:32:28;5.20;;;4.80;;
8952;SDS011;4511;50.890;8.054;2023-02-28T01:34:54;5.40;;;4.90;;
8952;SDS011;4511;50.890;8.054;2023-02-28T01:37:21;5.60;;;5.00;;
8952;SDS011;4511;50.890;8.054;2023-02-28T01:39:51;5.70;;;5.20;;
8952;SDS011;4511;50.890;8.054;2023-02-28T01:42:17;5.43;;;4.90;;
8952;SDS011;4511;50.890;8.054;2023-02-28T01:44:58;5.30;;;4.90;;
8952;SDS011;4511;50.890;8.054;2023-02-28T01:47:28;5.77;;;5.27;;
8952;SDS011;4511;50.890;8.054;2023-02-28T01:49:57;5.43;;;5.00;;
8952;SDS011;4511;50.890;8.054;2023-02-28T01:52:26;5.77;;;5.17;;
8952;SDS011;4511;50.890;8.054;2023-02-28T01:54:55;5.40;;;5.00;;
8952;SDS011;4511;50.890;8.054;2023-02-28T01:57:25;5.57;;;5.07;;
8952;SDS011;4511;50.890;8.054;2023-02-28T01:59:57;5.27;;;4.77;;
8952;SDS011;4511;50.890;8.054;2023-02-28T02:02:28;5.40;;;5.00;;
8952;SDS011;4511;50.890;8.054;2023-02-28T02:04:56;5.40;;;5.00;;
8952;SDS011;4511;50.890;8.054;2023-02-28T02:07:27;5.87;;;5.30;;
8952;SDS011;4511;50.890;8.054;2023-02-28T02:10:03;5.73;;;5.30;;
8952;SDS011;4511;50.890;8.054;2023-02-28T02:12:41;4.73;;;4.43;;
8952;SDS011;4511;50.890;8.054;2023-02-28T02:15:26;5.47;;;5.03;;
8952;SDS011;4511;50.890;8.054;2023-02-28T02:17:59;5.30;;;4.90;;
8952;SDS011;4511;50.890;8.054;2023-02-28T02:29:25;5.00;;;4.70;;
8952;SDS011;4511;50.890;8.054;2023-02-28T02:32:28;5.73;;;5.20;;
8952;SDS011;4511;50.890;8.054;2023-02-28T02:35:15;5.57;;;5.13;;
8952;SDS011;4511;50.890;8.054;2023-02-28T02:37:50;5.23;;;4.83;;
8952;SDS011;4511;50.890;8.054;2023-02-28T02:40:21;5.80;;;5.30;;
8952;SDS011;4511;50.890;8.054;2023-02-28T02:42:52;5.60;;;5.20;;
8952;SDS011;4511;50.890;8.054;2023-02-28T02:45:27;5.33;;;4.93;;
8952;SDS011;4511;50.890;8.054;2023-02-28T02:48:00;5.50;;;5.00;;
8952;SDS011;4511;50.890;8.054;2023-02-28T02:50:31;5.57;;;5.17;;
8952;SDS011;4511;50.890;8.054;2023-02-28T02:53:02;5.63;;;5.13;;
8952;SDS011;4511;50.890;8.054;2023-02-28T02:55:30;5.30;;;4.90;;
8952;SDS011;4511;50.890;8.054;2023-02-28T02:58:01;5.30;;;4.80;;
8952;SDS011;4511;50.890;8.054;2023-02-28T03:00:33;5.93;;;5.43;;
8952;SDS011;4511;50.890;8.054;2023-02-28T03:03:03;5.60;;;5.20;;
8952;SDS011;4511;50.890;8.054;2023-02-28T03:05:34;5.50;;;5.10;;
8952;SDS011;4511;50.890;8.054;2023-02-28T03:08:07;5.60;;;5.10;;
8952;SDS011;4511;50.890;8.054;2023-02-28T03:10:35;5.40;;;5.00;;
8952;SDS011;4511;50.890;8.054;2023-02-28T03:16:20;5.40;;;4.90;;
8952;SDS011;4511;50.890;8.054;2023-02-28T03:18:58;7.10;;;5.30;;
8952;SDS011;4511;50.890;8.054;2023-02-28T03:21:35;5.30;;;4.87;;
8952;SDS011;4511;50.890;8.054;2023-02-28T03:24:07;5.13;;;4.73;;
8952;SDS011;4511;50.890;8.054;2023-02-28T03:26:38;5.77;;;5.37;;
8952;SDS011;4511;50.890;8.054;2023-02-28T03:29:10;5.30;;;4.90;;
8952;SDS011;4511;50.890;8.054;2023-02-28T03:31:43;5.50;;;5.10;;
8952;SDS011;4511;50.890;8.054;2023-02-28T03:34:15;6.10;;;5.70;;
8952;SDS011;4511;50.890;8.054;2023-02-28T03:36:50;5.60;;;5.10;;
8952;SDS011;4511;50.890;8.054;2023-02-28T03:39:21;5.37;;;5.00;;
8952;SDS011;4511;50.890;8.054;2023-02-28T03:41:52;6.17;;;5.57;;
8952;SDS011;4511;50.890;8.054;2023-02-28T03:44:26;5.57;;;5.17;;
8952;SDS011;4511;50.890;8.054;2023-02-28T03:46:59;5.37;;;4.97;;
8952;SDS011;4511;50.890;8.054;2023-02-28T03:49:30;5.97;;;5.47;;
8952;SDS011;4511;50.890;8.054;2023-02-28T03:52:01;5.90;;;5.40;;
8952;SDS011;4511;50.890;8.054;2023-02-28T03:54:31;5.97;;;5.53;;
8952;SDS011;4511;50.890;8.054;2023-02-28T03:57:02;6.20;;;5.60;;
8952;SDS011;4511;50.890;8.054;2023-02-28T03:59:34;5.77;;;5.37;;
8952;SDS011;4511;50.890;8.054;2023-02-28T04:02:03;5.93;;;5.43;;
8952;SDS011;4511;50.890;8.054;2023-02-28T04:04:30;6.13;;;5.50;;
8952;SDS011;4511;50.890;8.054;2023-02-28T04:07:03;5.57;;;5.17;;
8952;SDS011;4511;50.890;8.054;2023-02-28T04:09:31;6.07;;;5.60;;
8952;SDS011;4511;50.890;8.054;2023-02-28T04:11:58;6.10;;;5.50;;
8952;SDS011;4511;50.890;8.054;2023-02-28T04:14:25;5.90;;;5.40;;
8952;SDS011;4511;50.890;8.054;2023-02-28T04:16:52;5.70;;;5.30;;
8952;SDS011;4511;50.890;8.054;2023-02-28T04:19:19;5.90;;;5.40;;
8952;SDS011;4511;50.890;8.054;2023-02-28T04:21:47;5.97;;;5.50;;
8952;SDS011;4511;50.890;8.054;2023-02-28T04:24:16;6.00;;;5.50;;
8952;SDS011;4511;50.890;8.054;2023-02-28T04:26:47;6.03;;;5.53;;
8952;SDS011;4511;50.890;8.054;2023-02-28T04:29:17;6.40;;;5.77;;
8952;SDS011;4511;50.890;8.054;2023-02-28T04:31:45;6.10;;;5.60;;
8952;SDS011;4511;50.890;8.054;2023-02-28T04:34:12;5.70;;;5.30;;
8952;SDS011;4511;50.890;8.054;2023-02-28T04:36:39;6.20;;;5.60;;
8952;SDS011;4511;50.890;8.054;2023-02-28T04:39:06;6.17;;;5.67;;
8952;SDS011;4511;50.890;8.054;2023-02-28T04:41:34;6.23;;;5.63;;
8952;SDS011;4511;50.890;8.054;2023-02-28T04:44:01;6.23;;;5.73;;
8952;SDS011;4511;50.890;8.054;2023-02-28T04:46:27;6.47;;;5.87;;
8952;SDS011;4511;50.890;8.054;2023-02-28T04:48:55;5.83;;;5.43;;
8952;SDS011;4511;50.890;8.054;2023-02-28T04:51:23;6.17;;;5.57;;
8952;SDS011;4511;50.890;8.054;2023-02-28T04:53:49;6.20;;;5.70;;
8952;SDS011;4511;50.890;8.054;2023-02-28T04:56:17;6.43;;;5.73;;
8952;SDS011;4511;50.890;8.054;2023-02-28T04:58:45;6.37;;;5.83;;
8952;SDS011;4511;50.890;8.054;2023-02-28T05:01:17;5.90;;;5.50;;
8952;SDS011;4511;50.890;8.054;2023-02-28T05:03:46;6.60;;;6.10;;
8952;SDS011;4511;50.890;8.054;2023-02-28T05:06:13;6.37;;;5.87;;
8952;SDS011;4511;50.890;8.054;2023-02-28T05:08:40;6.37;;;5.77;;
8952;SDS011;4511;50.890;8.054;2023-02-28T05:11:15;5.63;;;5.23;;
8952;SDS011;4511;50.890;8.054;2023-02-28T05:13:44;6.20;;;5.70;;
8952;SDS011;4511;50.890;8.054;2023-02-28T05:16:12;6.07;;;5.57;;
8952;SDS011;4511;50.890;8.054;2023-02-28T05:18:39;5.50;;;5.10;;
8952;SDS011;4511;50.890;8.054;2023-02-28T05:21:12;5.80;;;5.40;;
8952;SDS011;4511;50.890;8.054;2023-02-28T05:23:53;6.30;;;5.80;;
8952;SDS011;4511;50.890;8.054;2023-02-28T05:26:21;6.10;;;5.60;;
8952;SDS011;4511;50.890;8.054;2023-02-28T05:28:49;5.80;;;5.40;;
8952;SDS011;4511;50.890;8.054;2023-02-28T05:31:16;5.57;;;5.17;;
8952;SDS011;4511;50.890;8.054;2023-02-28T05:33:43;5.60;;;5.20;;
8952;SDS011;4511;50.890;8.054;2023-02-28T05:36:09;5.50;;;5.10;;
8952;SDS011;4511;50.890;8.054;2023-02-28T05:38:36;7.07;;;5.30;;
8952;SDS011;4511;50.890;8.054;2023-02-28T05:41:06;5.80;;;5.30;;
8952;SDS011;4511;50.890;8.054;2023-02-28T05:43:34;6.07;;;5.50;;
8952;SDS011;4511;50.890;8.054;2023-02-28T05:46:03;5.87;;;5.47;;
8952;SDS011;4511;50.890;8.054;2023-02-28T05:48:31;5.80;;;5.37;;
8952;SDS011;4511;50.890;8.054;2023-02-28T05:50:58;5.53;;;5.03;;
8952;SDS011;4511;50.890;8.054;2023-02-28T05:53:25;6.07;;;5.50;;
8952;SDS011;4511;50.890;8.054;2023-02-28T05:55:52;5.50;;;5.10;;
8952;SDS011;4511;50.890;8.054;2023-02-28T05:58:19;5.77;;;5.27;;
8952;SDS011;4511;50.890;8.054;2023-02-28T06:00:46;5.70;;;5.20;;
8952;SDS011;4511;50.890;8.054;2023-02-28T06:03:15;5.10;;;4.70;;
8952;SDS011;4511;50.890;8.054;2023-02-28T06:05:41;5.10;;;4.80;;
8952;SDS011;4511;50.890;8.054;2023-02-28T06:08:08;4.93;;;4.53;;
8952;SDS011;4511;50.890;8.054;2023-02-28T06:10:35;5.30;;;4.80;;
8952;SDS011;4511;50.890;8.054;2023-02-28T06:13:03;5.03;;;4.63;;
8952;SDS011;4511;50.890;8.054;2023-02-28T06:15:30;4.90;;;4.50;;
8952;SDS011;4511;50.890;8.054;2023-02-28T06:17:57;5.00;;;4.60;;
8952;SDS011;4511;50.890;8.054;2023-02-28T06:20:26;5.30;;;4.90;;
8952;SDS011;4511;50.890;8.054;2023-02-28T06:22:54;5.37;;;4.97;;
8952;SDS011;4511;50.890;8.054;2023-02-28T06:25:23;4.90;;;4.60;;
8952;SDS011;4511;50.890;8.054;2023-02-28T06:27:50;5.07;;;4.67;;
8952;SDS011;4511;50.890;8.054;2023-02-28T06:30:17;5.20;;;4.90;;
8952;SDS011;4511;50.890;8.054;2023-02-28T06:32:48;4.90;;;4.60;;
8952;SDS011;4511;50.890;8.054;2023-02-28T06:35:15;4.70;;;4.40;;
8952;SDS011;4511;50.890;8.054;2023-02-28T06:37:43;4.70;;;4.40;;
8952;SDS011;4511;50.890;8.054;2023-02-28T06:40:12;4.50;;;4.30;;
8952;SDS011;4511;50.890;8.054;2023-02-28T06:42:39;4.60;;;4.30;;
8952;SDS011;4511;50.890;8.054;2023-02-28T06:45:06;4.60;;;4.30;;
8952;SDS011;4511;50.890;8.054;2023-02-28T06:47:34;4.60;;;4.30;;
8952;SDS011;4511;50.890;8.054;2023-02-28T06:50:01;4.93;;;4.53;;
8952;SDS011;4511;50.890;8.054;2023-02-28T06:52:28;4.63;;;4.33;;
8952;SDS011;4511;50.890;8.054;2023-02-28T06:54:56;4.83;;;4.53;;
8952;SDS011;4511;50.890;8.054;2023-02-28T06:57:26;5.00;;;4.60;;
8952;SDS011;4511;50.890;8.054;2023-02-28T06:59:55;5.33;;;3.90;;
8952;SDS011;4511;50.890;8.054;2023-02-28T07:02:23;4.43;;;4.20;;
8952;SDS011;4511;50.890;8.054;2023-02-28T07:04:50;4.47;;;4.07;;
8952;SDS011;4511;50.890;8.054;2023-02-28T07:07:16;4.90;;;4.60;;
8952;SDS011;4511;50.890;8.054;2023-02-28T07:09:43;5.17;;;4.77;;
8952;SDS011;4511;50.890;8.054;2023-02-28T07:12:11;4.20;;;4.00;;
8952;SDS011;4511;50.890;8.054;2023-02-28T07:14:38;4.30;;;4.00;;
8952;SDS011;4511;50.890;8.054;2023-02-28T07:17:06;4.47;;;4.10;;
8952;SDS011;4511;50.890;8.054;2023-02-28T07:19:33;4.33;;;4.03;;
8952;SDS011;4511;50.890;8.054;2023-02-28T07:22:00;4.60;;;3.93;;
8952;SDS011;4511;50.890;8.054;2023-02-28T07:24:28;4.30;;;4.00;;
8952;SDS011;4511;50.890;8.054;2023-02-28T07:26:54;4.73;;;4.43;;
8952;SDS011;4511;50.890;8.054;2023-02-28T07:29:23;4.40;;;4.10;;
8952;SDS011;4511;50.890;8.054;2023-02-28T07:31:50;4.37;;;4.07;;
8952;SDS011;4511;50.890;8.054;2023-02-28T07:34:18;4.20;;;3.90;;
8952;SDS011;4511;50.890;8.054;2023-02-28T07:36:45;4.40;;;4.10;;
8952;SDS011;4511;50.890;8.054;2023-02-28T07:39:12;4.50;;;4.20;;
8952;SDS011;4511;50.890;8.054;2023-02-28T07:41:39;4.73;;;4.43;;
8952;SDS011;4511;50.890;8.054;2023-02-28T07:44:08;4.27;;;4.00;;
8952;SDS011;4511;50.890;8.054;2023-02-28T07:46:36;4.50;;;4.20;;
8952;SDS011;4511;50.890;8.054;2023-02-28T07:49:03;4.80;;;4.07;;
8952;SDS011;4511;50.890;8.054;2023-02-28T07:51:31;4.90;;;4.40;;
8952;SDS011;4511;50.890;8.054;2023-02-28T07:53:58;3.77;;;3.57;;
8952;SDS011;4511;50.890;8.054;2023-02-28T07:56:24;3.83;;;3.53;;
8952;SDS011;4511;50.890;8.054;2023-02-28T07:58:51;4.10;;;3.90;;
8952;SDS011;4511;50.890;8.054;2023-02-28T08:01:18;3.90;;;3.70;;
8952;SDS011;4511;50.890;8.054;2023-02-28T08:03:47;4.10;;;3.80;;
8952;SDS011;4511;50.890;8.054;2023-02-28T08:06:17;4.03;;;3.73;;
8952;SDS011;4511;50.890;8.054;2023-02-28T08:08:46;4.43;;;4.00;;
8952;SDS011;4511;50.890;8.054;2023-02-28T08:11:13;4.47;;;4.07;;
8952;SDS011;4511;50.890;8.054;2023-02-28T08:13:41;4.07;;;3.77;;
8952;SDS011;4511;50.890;8.054;2023-02-28T08:16:09;4.23;;;3.93;;
8952;SDS011;4511;50.890;8.054;2023-02-28T08:18:36;4.00;;;3.80;;
8952;SDS011;4511;50.890;8.054;2023-02-28T08:21:07;3.90;;;3.70;;
8952;SDS011;4511;50.890;8.054;2023-02-28T08:23:34;4.30;;;4.00;;
8952;SDS011;4511;50.890;8.054;2023-02-28T08:26:02;4.50;;;4.20;;
8952;SDS011;4511;50.890;8.054;2023-02-28T08:28:29;3.87;;;3.67;;
8952;SDS011;4511;50.890;8.054;2023-02-28T08:30:56;3.87;;;3.67;;
8952;SDS011;4511;50.890;8.054;2023-02-28T08:33:23;4.47;;;4.10;;
8952;SDS011;4511;50.890;8.054;2023-02-28T08:35:52;4.23;;;3.93;;
8952;SDS011;4511;50.890;8.054;2023-02-28T08:38:21;4.10;;;3.80;;
8952;SDS011;4511;50.890;8.054;2023-02-28T08:40:48;4.00;;;3.80;;
8952;SDS011;4511;50.890;8.054;2023-02-28T08:43:16;3.93;;;3.70;;
8952;SDS011;4511;50.890;8.054;2023-02-28T08:45:43;4.37;;;3.97;;
8952;SDS011;4511;50.890;8.054;2023-02-28T08:48:10;4.00;;;3.77;;
8952;SDS011;4511;50.890;8.054;2023-02-28T08:50:38;4.10;;;3.70;;
8952;SDS011;4511;50.890;8.054;2023-02-28T08:53:05;4.50;;;4.10;;
8952;SDS011;4511;50.890;8.054;2023-02-28T08:55:33;4.60;;;4.30;;
8952;SDS011;4511;50.890;8.054;2023-02-28T08:58:00;4.40;;;4.00;;
8952;SDS011;4511;50.890;8.054;2023-02-28T09:00:27;3.87;;;3.67;;
8952;SDS011;4511;50.890;8.054;2023-02-28T09:02:54;3.90;;;3.60;;
8952;SDS011;4511;50.890;8.054;2023-02-28T09:05:20;4.20;;;3.87;;
8952;SDS011;4511;50.890;8.054;2023-02-28T09:07:48;4.30;;;4.00;;
8952;SDS011;4511;50.890;8.054;2023-02-28T09:10:16;4.27;;;4.07;;
8952;SDS011;4511;50.890;8.054;2023-02-28T09:12:44;3.87;;;3.63;;
8952;SDS011;4511;50.890;8.054;2023-02-28T09:15:12;3.90;;;3.70;;
8952;SDS011;4511;50.890;8.054;2023-02-28T09:17:39;3.90;;;3.60;;
8952;SDS011;4511;50.890;8.054;2023-02-28T09:20:06;4.77;;;3.80;;
8952;SDS011;4511;50.890;8.054;2023-02-28T09:22:34;4.23;;;3.93;;
8952;SDS011;4511;50.890;8.054;2023-02-28T09:25:00;4.20;;;3.90;;
8952;SDS011;4511;50.890;8.054;2023-02-28T09:27:27;4.43;;;4.13;;
8952;SDS011;4511;50.890;8.054;2023-02-28T09:29:55;4.77;;;4.37;;
8952;SDS011;4511;50.890;8.054;2023-02-28T09:32:22;4.50;;;4.20;;
8952;SDS011;4511;50.890;8.054;2023-02-28T09:34:49;4.23;;;4.03;;
8952;SDS011;4511;50.890;8.054;2023-02-28T09:37:16;4.60;;;4.30;;
8952;SDS011;4511;50.890;8.054;2023-02-28T09:39:42;4.23;;;3.93;;
8952;SDS011;4511;50.890;8.054;2023-02-28T09:42:12;4.70;;;4.30;;
8952;SDS011;4511;50.890;8.054;2023-02-28T09:44:47;4.33;;;3.83;;
8952;SDS011;4511;50.890;8.054;2023-02-28T09:47:17;3.70;;;3.50;;
8952;SDS011;4511;50.890;8.054;2023-02-28T09:49:51;4.57;;;4.07;;
8952;SDS011;4511;50.890;8.054;2023-02-28T09:52:20;4.23;;;4.00;;
8952;SDS011;4511;50.890;8.054;2023-02-28T09:54:52;4.40;;;4.10;;
8952;SDS011;4511;50.890;8.054;2023-02-28T09:57:21;4.47;;;4.13;;
8952;SDS011;4511;50.890;8.054;2023-02-28T10:00:01;4.30;;;4.00;;
8952;SDS011;4511;50.890;8.054;2023-02-28T10:02:44;4.33;;;4.10;;
8952;SDS011;4511;50.890;8.054;2023-02-28T10:05:18;4.43;;;4.07;;
8952;SDS011;4511;50.890;8.054;2023-02-28T10:07:51;5.17;;;4.77;;
8952;SDS011;4511;50.890;8.054;2023-02-28T10:10:26;4.27;;;3.97;;
8952;SDS011;4511;50.890;8.054;2023-02-28T10:12:59;4.27;;;3.87;;
8952;SDS011;4511;50.890;8.054;2023-02-28T10:15:29;4.30;;;4.00;;
8952;SDS011;4511;50.890;8.054;2023-02-28T10:18:00;4.30;;;3.97;;
8952;SDS011;4511;50.890;8.054;2023-02-28T10:20:30;4.40;;;4.00;;
8952;SDS011;4511;50.890;8.054;2023-02-28T10:23:02;4.50;;;4.10;;
8952;SDS011;4511;50.890;8.054;2023-02-28T10:25:36;4.30;;;4.00;;
8952;SDS011;4511;50.890;8.054;2023-02-28T10:28:08;4.80;;;4.40;;
8952;SDS011;4511;50.890;8.054;2023-02-28T10:30:37;4.20;;;3.90;;
8952;SDS011;4511;50.890;8.054;2023-02-28T10:33:09;4.60;;;4.20;;
8952;SDS011;4511;50.890;8.054;2023-02-28T10:35:45;4.90;;;4.40;;
8952;SDS011;4511;50.890;8.054;2023-02-28T10:38:14;4.60;;;4.20;;
8952;SDS011;4511;50.890;8.054;2023-02-28T10:40:43;4.70;;;4.30;;
8952;SDS011;4511;50.890;8.054;2023-02-28T10:43:18;4.60;;;4.30;;
8952;SDS011;4511;50.890;8.054;2023-02-28T10:45:54;4.30;;;4.00;;
8952;SDS011;4511;50.890;8.054;2023-02-28T10:51:11;4.40;;;4.00;;
8952;SDS011;4511;50.890;8.054;2023-02-28T10:53:45;4.50;;;4.10;;
8952;SDS011;4511;50.890;8.054;2023-02-28T10:56:17;4.33;;;4.00;;
8952;SDS011;4511;50.890;8.054;2023-02-28T10:58:51;4.53;;;4.13;;
8952;SDS011;4511;50.890;8.054;2023-02-28T11:01:20;4.67;;;4.30;;
8952;SDS011;4511;50.890;8.054;2023-02-28T11:03:50;4.83;;;4.43;;
8952;SDS011;4511;50.890;8.054;2023-02-28T11:06:19;4.97;;;4.67;;
8952;SDS011;4511;50.890;8.054;2023-02-28T11:08:49;4.50;;;4.10;;
8952;SDS011;4511;50.890;8.054;2023-02-28T11:11:18;4.97;;;4.50;;
8952;SDS011;4511;50.890;8.054;2023-02-28T11:13:46;4.90;;;4.40;;
8952;SDS011;4511;50.890;8.054;2023-02-28T11:16:14;4.80;;;4.40;;
8952;SDS011;4511;50.890;8.054;2023-02-28T11:18:42;5.10;;;4.60;;
8952;SDS011;4511;50.890;8.054;2023-02-28T11:21:18;4.63;;;4.23;;
8952;SDS011;4511;50.890;8.054;2023-02-28T11:23:49;4.73;;;4.30;;
8952;SDS011;4511;50.890;8.054;2023-02-28T11:29:17;5.20;;;4.73;;
8952;SDS011;4511;50.890;8.054;2023-02-28T11:32:00;4.60;;;4.20;;
8952;SDS011;4511;50.890;8.054;2023-02-28T11:34:36;4.40;;;4.10;;
8952;SDS011;4511;50.890;8.054;2023-02-28T11:37:09;4.77;;;4.37;;
8952;SDS011;4511;50.890;8.054;2023-02-28T11:39:39;4.80;;;4.40;;
8952;SDS011;4511;50.890;8.054;2023-02-28T11:42:20;5.30;;;4.80;;
8952;SDS011;4511;50.890;8.054;2023-02-28T11:45:01;4.60;;;4.20;;
8952;SDS011;4511;50.890;8.054;2023-02-28T11:47:38;4.73;;;4.30;;
8952;SDS011;4511;50.890;8.054;2023-02-28T11:50:16;4.70;;;4.30;;
8952;SDS011;4511;50.890;8.054;2023-02-28T11:52:54;5.10;;;4.63;;
8952;SDS011;4511;50.890;8.054;2023-02-28T11:55:24;6.13;;;4.20;;
8952;SDS011;4511;50.890;8.054;2023-02-28T11:58:05;4.90;;;4.50;;
8952;SDS011;4511;50.890;8.054;2023-02-28T12:00:54;5.37;;;4.97;;
8952;SDS011;4511;50.890;8.054;2023-02-28T12:03:35;5.00;;;4.60;;
8952;SDS011;4511;50.890;8.054;2023-02-28T12:06:15;5.33;;;4.83;;
8952;SDS011;4511;50.890;8.054;2023-02-28T12:08:51;5.57;;;5.07;;
8952;SDS011;4511;50.890;8.054;2023-02-28T12:11:30;5.40;;;4.90;;
8952;SDS011;4511;50.890;8.054;2023-02-28T12:17:13;5.60;;;5.10;;
8952;SDS011;4511;50.890;8.054;2023-02-28T12:19:57;5.23;;;4.83;;
8952;SDS011;4511;50.890;8.054;2023-02-28T12:22:34;6.47;;;5.10;;
8952;SDS011;4511;50.890;8.054;2023-02-28T12:25:21;5.80;;;5.30;;
8952;SDS011;4511;50.890;8.054;2023-02-28T12:28:02;5.63;;;5.13;;
8952;SDS011;4511;50.890;8.054;2023-02-28T12:30:31;5.30;;;4.80;;
8952;SDS011;4511;50.890;8.054;2023-02-28T12:33:01;5.23;;;4.77;;
8952;SDS011;4511;50.890;8.054;2023-02-28T12:35:33;5.50;;;5.00;;
8952;SDS011;4511;50.890;8.054;2023-02-28T12:38:04;4.90;;;4.43;;
8952;SDS011;4511;50.890;8.054;2023-02-28T12:40:41;5.20;;;4.60;;
8952;SDS011;4511;50.890;8.054;2023-02-28T12:43:11;5.77;;;5.27;;
8952;SDS011;4511;50.890;8.054;2023-02-28T12:45:40;5.23;;;4.73;;
8952;SDS011;4511;50.890;8.054;2023-02-28T12:48:12;5.00;;;4.50;;
8952;SDS011;4511;50.890;8.054;2023-02-28T12:50:41;5.87;;;4.63;;
8952;SDS011;4511;50.890;8.054;2023-02-28T12:53:09;6.20;;;4.80;;
8952;SDS011;4511;50.890;8.054;2023-02-28T12:55:42;4.90;;;4.50;;
8952;SDS011;4511;50.890;8.054;2023-02-28T12:58:17;5.70;;;5.07;;
8952;SDS011;4511;50.890;8.054;2023-02-28T13:01:03;5.40;;;4.90;;
8952;SDS011;4511;50.890;8.054;2023-02-28T13:03:52;5.10;;;4.70;;
8952;SDS011;4511;50.890;8.054;2023-02-28T13:06:54;5.07;;;4.67;;
8952;SDS011;4511;50.890;8.054;2023-02-28T13:09:39;4.80;;;4.40;;
8952;SDS011;4511;50.890;8.054;2023-02-28T13:12:13;5.70;;;5.17;;
8952;SDS011;4511;50.890;8.054;2023-02-28T13:14:41;5.03;;;4.63;;
8952;SDS011;4511;50.890;8.054;2023-02-28T13:17:12;5.67;;;4.53;;
8952;SDS011;4511;50.890;8.054;2023-02-28T13:19:45;5.57;;;5.03;;
8952;SDS011;4511;50.890;8.054;2023-02-28T13:22:36;5.17;;;4.50;;
8952;SDS011;4511;50.890;8.054;2023-02-28T13:31:23;6.03;;;4.70;;
8952;SDS011;4511;50.890;8.054;2023-02-28T13:34:04;4.90;;;4.50;;
8952;SDS011;4511;50.890;8.054;2023-02-28T13:36:38;5.10;;;4.60;;
8952;SDS011;4511;50.890;8.054;2023-02-28T13:39:28;4.60;;;4.20;;
8952;SDS011;4511;50.890;8.054;2023-02-28T13:42:32;4.90;;;4.10;;
8952;SDS011;4511;50.890;8.054;2023-02-28T13:45:21;5.10;;;4.50;;
8952;SDS011;4511;50.890;8.054;2023-02-28T13:47:58;4.80;;;4.40;;
8952;SDS011;4511;50.890;8.054;2023-02-28T13:50:27;4.77;;;4.13;;
8952;SDS011;4511;50.890;8.054;2023-02-28T13:56:17;5.27;;;4.47;;
8952;SDS011;4511;50.890;8.054;2023-02-28T13:58:53;4.77;;;4.23;;
8952;SDS011;4511;50.890;8.054;2023-02-28T14:01:27;4.90;;;4.50;;
8952;SDS011;4511;50.890;8.054;2023-02-28T14:07:06;8.60;;;4.80;;
8952;SDS011;4511;50.890;8.054;2023-02-28T14:09:35;5.63;;;4.50;;
8952;SDS011;4511;50.890;8.054;2023-02-28T14:18:12;4.80;;;4.40;;
8952;SDS011;4511;50.890;8.054;2023-02-28T14:20:49;5.33;;;4.37;;
8952;SDS011;4511;50.890;8.054;2023-02-28T14:23:24;4.50;;;4.10;;
8952;SDS011;4511;50.890;8.054;2023-02-28T14:26:13;5.33;;;4.60;;
8952;SDS011;4511;50.890;8.054;2023-02-28T14:28:56;4.57;;;4.07;;
8952;SDS011;4511;50.890;8.054;2023-02-28T14:31:43;6.40;;;4.40;;
8952;SDS011;4511;50.890;8.054;2023-02-28T14:34:20;5.20;;;4.70;;
8952;SDS011;4511;50.890;8.054;2023-02-28T14:37:01;5.20;;;4.70;;
8952;SDS011;4511;50.890;8.054;2023-02-28T14:39:29;4.90;;;4.53;;
8952;SDS011;4511;50.890;8.054;2023-02-28T14:41:57;5.97;;;5.40;;
8952;SDS011;4511;50.890;8.054;2023-02-28T14:44:28;5.47;;;4.97;;
8952;SDS011;4511;50.890;8.054;2023-02-28T14:46:59;7.20;;;4.80;;
8952;SDS011;4511;50.890;8.054;2023-02-28T14:49:31;5.60;;;5.10;;
8952;SDS011;4511;50.890;8.054;2023-02-28T14:52:02;5.10;;;4.70;;
8952;SDS011;4511;50.890;8.054;2023-02-28T14:54:34;5.20;;;4.70;;
8952;SDS011;4511;50.890;8.054;2023-02-28T14:57:01;6.13;;;4.87;;
8952;SDS011;4511;50.890;8.054;2023-02-28T14:59:29;5.93;;;5.33;;
8952;SDS011;4511;50.890;8.054;2023-02-28T15:02:19;5.90;;;5.10;;
8952;SDS011;4511;50.890;8.054;2023-02-28T15:04:54;5.33;;;4.93;;
8952;SDS011;4511;50.890;8.054;2023-02-28T15:07:22;5.80;;;5.30;;
8952;SDS011;4511;50.890;8.054;2023-02-28T15:10:09;5.43;;;4.93;;
8952;SDS011;4511;50.890;8.054;2023-02-28T15:12:39;5.60;;;5.17;;
8952;SDS011;4511;50.890;8.054;2023-02-28T15:15:14;5.57;;;5.07;;
8952;SDS011;4511;50.890;8.054;2023-02-28T15:17:43;5.10;;;4.60;;
8952;SDS011;4511;50.890;8.054;2023-02-28T15:20:14;5.77;;;5.00;;
8952;SDS011;4511;50.890;8.054;2023-02-28T15:22:43;5.53;;;4.90;;
8952;SDS011;4511;50.890;8.054;2023-02-28T15:25:13;4.40;;;4.00;;
8952;SDS011;4511;50.890;8.054;2023-02-28T15:27:45;5.40;;;4.90;;
8952;SDS011;4511;50.890;8.054;2023-02-28T15:30:15;5.93;;;5.30;;
8952;SDS011;4511;50.890;8.054;2023-02-28T15:32:46;5.80;;;5.30;;
8952;SDS011;4511;50.890;8.054;2023-02-28T15:35:31;5.40;;;4.90;;
8952;SDS011;4511;50.890;8.054;2023-02-28T15:38:00;5.90;;;5.30;;
8952;SDS011;4511;50.890;8.054;2023-02-28T15:40:29;5.80;;;5.30;;
8952;SDS011;4511;50.890;8.054;2023-02-28T15:42:58;6.40;;;5.60;;
8952;SDS011;4511;50.890;8.054;2023-02-28T15:45:32;5.83;;;5.30;;
8952;SDS011;4511;50.890;8.054;2023-02-28T15:48:04;6.17;;;5.67;;
8952;SDS011;4511;50.890;8.054;2023-02-28T15:50:31;5.77;;;5.27;;
8952;SDS011;4511;50.890;8.054;2023-02-28T15:52:58;6.33;;;5.73;;
8952;SDS011;4511;50.890;8.054;2023-02-28T15:55:28;6.40;;;5.80;;
8952;SDS011;4511;50.890;8.054;2023-02-28T15:57:56;8.33;;;5.40;;
8952;SDS011;4511;50.890;8.054;2023-02-28T16:00:27;5.90;;;5.30;;
8952;SDS011;4511;50.890;8.054;2023-02-28T16:02:57;6.07;;;5.57;;
8952;SDS011;4511;50.890;8.054;2023-02-28T16:05:26;5.50;;;5.10;;
8952;SDS011;4511;50.890;8.054;2023-02-28T16:07:57;5.73;;;5.20;;
8952;SDS011;4511;50.890;8.054;2023-02-28T16:10:25;7.53;;;5.50;;
8952;SDS011;4511;50.890;8.054;2023-02-28T16:12:56;5.70;;;5.20;;
8952;SDS011;4511;50.890;8.054;2023-02-28T16:15:24;7.50;;;6.80;;
8952;SDS011;4511;50.890;8.054;2023-02-28T16:17:54;7.40;;;6.63;;